Time;durP1;ratioP1;P1;durP2;ratioP2;P2;SDS_P1;SDS_P2;PMS_P1;PMS_P2;Temp;Humidity;BMP_temperature;BMP_pressure;BME280_temperature;BME280_humidity;BME280_pressure;Samples;Min_cycle;Max_cycle;Signal;HPM_P1;HPM_P2
2022/05/14 00:00:28;;;;;;;4.40;1.80;;;;;;;12.58;100.00;101690.31;1857592;77;21162;-74
2022/05/14 00:02:56;;;;;;;3.87;1.40;;;;;;;12.48;100.00;101691.92;1853618;76;21046;-74
2022/05/14 00:05:25;;;;;;;4.33;2.12;;;;;;;12.59;100.00;101686.43;1853190;76;21141;-74
2022/05/14 00:07:53;;;;;;;7.62;1.37;;;;;;;12.46;100.00;101689.73;1854734;77;21115;-74
2022/05/14 00:10:23;;;;;;;3.02;1.35;;;;;;;12.57;100.00;101694.59;1857286;77;21052;-74
2022/05/14 00:13:05;;;;;;;1.90;1.32;;;;;;;12.45;100.00;101692.72;1857093;76;21439;-74
2022/05/14 00:15:36;;;;;;;2.72;1.17;;;;;;;12.32;100.00;101693.03;1852875;77;21061;-74
2022/05/14 00:18:05;;;;;;;2.72;1.50;;;;;;;12.47;100.00;101692.75;1855788;76;21046;-74
2022/05/14 00:20:33;;;;;;;3.70;1.20;;;;;;;12.36;100.00;101689.64;1857346;77;21029;-74
2022/05/14 00:23:00;;;;;;;3.30;1.37;;;;;;;12.43;100.00;101686.70;1857501;76;21580;-75
2022/05/14 00:25:28;;;;;;;1.60;1.50;;;;;;;12.30;100.00;101688.70;1857549;77;21045;-74
2022/05/14 00:27:56;;;;;;;3.58;1.70;;;;;;;12.28;100.00;101682.66;1857101;77;21029;-74
2022/05/14 00:30:26;;;;;;;1.25;0.98;;;;;;;12.29;100.00;101685.25;1857461;76;21013;-74
2022/05/14 00:32:53;;;;;;;1.90;1.10;;;;;;;12.28;100.00;101681.37;1857464;77;21680;-74
2022/05/14 00:35:21;;;;;;;3.17;1.30;;;;;;;12.20;100.00;101681.29;1823636;77;21173;-74
2022/05/14 00:37:49;;;;;;;2.58;1.30;;;;;;;12.20;100.00;101672.27;1829710;77;21195;-74
2022/05/14 00:40:19;;;;;;;3.65;1.42;;;;;;;12.24;100.00;101672.31;1854929;76;21600;-74
2022/05/14 00:42:47;;;;;;;3.12;1.62;;;;;;;12.15;100.00;101670.92;1856805;76;21056;-74
2022/05/14 00:45:17;;;;;;;2.98;2.10;;;;;;;11.98;100.00;101674.13;1857529;76;21561;-74
2022/05/14 00:47:46;;;;;;;3.05;1.52;;;;;;;12.04;100.00;101669.47;1857624;76;21048;-74
2022/05/14 00:50:29;;;;;;;7.33;1.65;;;;;;;12.10;100.00;101673.43;1849939;76;21096;-74
2022/05/14 00:52:59;;;;;;;6.55;1.72;;;;;;;12.14;100.00;101664.05;1848208;76;21374;-75
2022/05/14 00:55:27;;;;;;;3.65;1.25;;;;;;;12.05;100.00;101664.75;1845968;76;21143;-74
2022/05/14 00:57:55;;;;;;;2.42;1.60;;;;;;;11.94;100.00;101657.31;1848953;77;21485;-74
2022/05/14 01:00:24;;;;;;;3.87;1.57;;;;;;;12.06;100.00;101660.52;1848197;78;21552;-74
2022/05/14 01:02:52;;;;;;;2.67;1.35;;;;;;;12.11;100.00;101654.55;1849627;76;21044;-74
2022/05/14 01:05:21;;;;;;;2.72;1.35;;;;;;;11.95;100.00;101647.03;1848671;78;21152;-74
2022/05/14 01:07:51;;;;;;;3.92;1.77;;;;;;;11.99;100.00;101644.06;1848850;77;21478;-74
2022/05/14 01:10:20;;;;;;;3.75;1.30;;;;;;;12.01;100.00;101634.66;1848842;76;21122;-74
2022/05/14 01:12:51;;;;;;;4.50;1.45;;;;;;;11.98;100.00;101635.90;1847000;77;21057;-74
2022/05/14 01:15:21;;;;;;;3.75;1.80;;;;;;;11.95;100.00;101623.86;1819589;78;21237;-74
2022/05/14 01:17:49;;;;;;;6.25;1.30;;;;;;;11.85;100.00;101620.30;1849024;78;21049;-74
2022/05/14 01:20:18;;;;;;;5.10;1.87;;;;;;;11.70;100.00;101614.95;1849330;77;21036;-75
2022/05/14 01:23:14;;;;;;;3.08;1.50;;;;;;;11.78;100.00;101612.05;1848558;77;21076;-74
2022/05/14 01:28:35;;;;;;;;;;;;;;;11.76;100.00;101606.44;1851727;78;21072;-74
2022/05/14 01:31:03;;;;;;;5.70;1.87;;;;;;;11.75;100.00;101605.56;1848877;78;20114;-74
2022/05/14 01:33:31;;;;;;;4.83;1.27;;;;;;;11.60;100.00;101595.53;1848741;78;21111;-74
2022/05/14 01:35:59;;;;;;;6.12;1.50;;;;;;;11.50;100.00;101592.82;1848843;77;21510;-74
2022/05/14 01:38:27;;;;;;;3.80;1.37;;;;;;;11.38;100.00;101589.23;1848979;77;21077;-74
2022/05/14 01:40:54;;;;;;;6.72;1.47;;;;;;;11.23;100.00;101585.58;1848770;76;21226;-74
2022/05/14 01:43:22;;;;;;;3.65;1.72;;;;;;;11.29;100.00;101582.23;1849136;76;21112;-74
2022/05/14 01:45:49;;;;;;;2.98;1.30;;;;;;;11.38;100.00;101577.65;1849019;77;21073;-74
2022/05/14 01:48:17;;;;;;;2.37;1.30;;;;;;;11.33;100.00;101576.70;1847761;76;21041;-74
2022/05/14 01:50:44;;;;;;;6.10;1.82;;;;;;;11.37;100.00;101580.20;1844985;77;21063;-75
2022/05/14 01:53:11;;;;;;;4.17;1.60;;;;;;;11.44;100.00;101579.00;1846412;78;21086;-74
2022/05/14 01:55:39;;;;;;;4.05;1.50;;;;;;;11.41;100.00;101575.09;1844657;78;21162;-74
2022/05/14 01:58:51;;;;;;;3.42;2.37;;;;;;;11.33;100.00;101585.30;1843904;78;21027;-74
2022/05/14 02:00:35;;;;;;;4.05;1.70;;;;;;;11.29;100.00;101581.36;1828110;78;21125;-74
2022/05/14 02:03:03;;;;;;;3.98;1.82;;;;;;;11.34;100.00;101579.30;1844741;77;21110;-75
2022/05/14 02:05:30;;;;;;;6.35;1.72;;;;;;;11.33;100.00;101581.44;1844598;78;21125;-74
2022/05/14 02:07:57;;;;;;;2.45;1.25;;;;;;;11.33;100.00;101583.13;1844786;78;21191;-74
2022/05/14 02:10:25;;;;;;;2.12;1.45;;;;;;;11.33;100.00;101581.44;1846120;78;21507;-74
2022/05/14 02:12:52;;;;;;;1.37;1.10;;;;;;;11.48;100.00;101582.50;1847516;78;21139;-74
2022/05/14 02:15:20;;;;;;;4.03;1.37;;;;;;;11.52;100.00;101585.56;1841919;78;21084;-74
2022/05/14 02:17:47;;;;;;;3.33;1.50;;;;;;;11.43;100.00;101588.86;1848591;78;21490;-74
2022/05/14 02:20:15;;;;;;;3.50;1.65;;;;;;;11.45;100.00;101591.05;1848439;78;21092;-74
2022/05/14 02:22:42;;;;;;;3.75;1.40;;;;;;;11.25;100.00;101592.04;1848841;78;21056;-74
2022/05/14 02:25:10;;;;;;;4.53;1.32;;;;;;;11.27;100.00;101589.05;1821732;78;21167;-74
2022/05/14 02:27:38;;;;;;;5.42;1.55;;;;;;;11.31;100.00;101583.55;1848892;78;21064;-74
2022/05/14 02:30:06;;;;;;;4.85;2.00;;;;;;;11.33;100.00;101587.87;1848856;78;21560;-74
2022/05/14 02:32:33;;;;;;;5.10;1.70;;;;;;;11.27;100.00;101583.91;1848802;78;21056;-74
2022/05/14 02:35:01;;;;;;;4.10;1.57;;;;;;;11.31;100.00;101581.81;1821397;78;21208;-74
2022/05/14 02:37:29;;;;;;;2.52;1.40;;;;;;;11.28;100.00;101579.23;1844500;78;21024;-74
2022/05/14 02:39:56;;;;;;;2.55;1.40;;;;;;;11.28;100.00;101577.06;1844417;78;20988;-74
2022/05/14 02:42:24;;;;;;;5.03;1.75;;;;;;;11.10;100.00;101567.81;1843886;78;21083;-74
2022/05/14 02:44:51;;;;;;;11.08;2.17;;;;;;;11.03;100.00;101572.41;1844569;77;21166;-74
2022/05/14 02:47:19;;;;;;;4.70;1.82;;;;;;;10.99;100.00;101569.34;1844609;78;21063;-74
2022/05/14 02:49:46;;;;;;;4.78;1.70;;;;;;;11.15;100.00;101570.46;1844507;78;21056;-74
2022/05/14 02:52:14;;;;;;;4.37;1.55;;;;;;;11.04;100.00;101574.16;1844617;78;21161;-74
2022/05/14 02:54:41;;;;;;;4.25;1.50;;;;;;;11.13;100.00;101567.42;1844984;78;21052;-74
2022/05/14 02:57:10;;;;;;;2.17;1.35;;;;;;;11.18;100.00;101569.63;1821264;78;21114;-74
2022/05/14 02:59:37;;;;;;;3.67;1.60;;;;;;;11.07;100.00;101574.22;1845085;78;21453;-74
2022/05/14 03:02:05;;;;;;;3.75;1.98;;;;;;;11.01;100.00;101565.11;1845011;78;21004;-74
2022/05/14 03:04:39;;;;;;;3.67;1.50;;;;;;;11.10;100.00;101563.95;1844847;78;21055;-74
2022/05/14 03:07:06;;;;;;;5.78;1.90;;;;;;;11.17;100.00;101567.91;1843602;78;21567;-74
2022/05/14 03:09:35;;;;;;;1.70;1.40;;;;;;;11.12;100.00;101573.42;1844737;78;21106;-74
2022/05/14 03:12:03;;;;;;;3.25;1.65;;;;;;;11.05;100.00;101570.74;1846718;78;21024;-74
2022/05/14 03:14:30;;;;;;;6.30;1.60;;;;;;;10.96;100.00;101562.45;1848225;78;21237;-74
2022/05/14 03:16:58;;;;;;;2.85;1.57;;;;;;;11.04;100.00;101568.14;1848790;78;21142;-75
2022/05/14 03:19:25;;;;;;;2.33;1.42;;;;;;;11.06;100.00;101567.76;1848708;78;21029;-75
2022/05/14 03:21:53;;;;;;;6.05;1.60;;;;;;;11.10;100.00;101567.81;1848482;78;21048;-75
2022/05/14 03:24:20;;;;;;;3.22;1.40;;;;;;;10.91;100.00;101565.80;1849006;78;21065;-74
2022/05/14 03:26:48;;;;;;;7.40;1.47;;;;;;;11.02;100.00;101562.97;1848968;78;21644;-75
2022/05/14 03:29:15;;;;;;;5.08;1.85;;;;;;;10.93;100.00;101564.12;1822106;78;21108;-74
2022/05/14 03:31:43;;;;;;;5.75;1.98;;;;;;;11.07;100.00;101552.77;1848359;78;21112;-74
2022/05/14 03:34:11;;;;;;;3.80;1.60;;;;;;;11.10;100.00;101552.37;1848871;78;21081;-74
2022/05/14 03:36:41;;;;;;;5.28;1.40;;;;;;;10.92;100.00;101552.13;1848800;78;21049;-75
2022/05/14 03:39:08;;;;;;;3.75;1.70;;;;;;;11.07;100.00;101545.05;1823414;78;21020;-74
2022/05/14 03:41:36;;;;;;;2.12;1.62;;;;;;;11.05;100.00;101541.58;1846713;78;21184;-74
2022/05/14 03:44:04;;;;;;;3.35;1.30;;;;;;;11.04;100.00;101539.45;1845157;78;21067;-74
2022/05/14 03:46:32;;;;;;;2.72;1.40;;;;;;;11.14;100.00;101548.57;1821144;78;21078;-74
2022/05/14 03:49:00;;;;;;;3.60;1.32;;;;;;;11.25;100.00;101539.71;1845236;78;21450;-74
2022/05/14 03:51:28;;;;;;;1.42;1.10;;;;;;;11.34;100.00;101547.58;1850427;77;21200;-74
2022/05/14 03:53:56;;;;;;;4.35;1.70;;;;;;;11.29;100.00;101542.36;1853714;77;21203;-74
2022/05/14 03:56:24;;;;;;;5.15;2.12;;;;;;;11.23;100.00;101539.28;1853658;77;21789;-74
2022/05/14 03:58:51;;;;;;;3.90;1.60;;;;;;;11.17;100.00;101539.17;1853457;77;21043;-74
2022/05/14 04:01:19;;;;;;;3.58;1.50;;;;;;;11.06;100.00;101533.89;1853610;77;21199;-74
2022/05/14 04:03:49;;;;;;;4.40;1.65;;;;;;;11.07;100.00;101522.78;1855622;77;21487;-74
2022/05/14 04:06:16;;;;;;;3.22;1.42;;;;;;;11.06;100.00;101527.45;1853154;77;21569;-74
2022/05/14 04:08:44;;;;;;;3.33;1.20;;;;;;;10.90;100.00;101527.67;1853565;77;21105;-74
2022/05/14 04:11:11;;;;;;;3.98;2.52;;;;;;;10.90;100.00;101525.09;1857281;77;21110;-74
2022/05/14 04:13:38;;;;;;;5.12;1.40;;;;;;;10.86;100.00;101523.73;1857323;76;21114;-74
2022/05/14 04:16:07;;;;;;;3.60;1.65;;;;;;;10.88;100.00;101516.92;1857468;77;21163;-74
2022/05/14 04:18:34;;;;;;;3.92;1.90;;;;;;;10.81;100.00;101516.81;1857650;76;21053;-74
2022/05/14 04:21:03;;;;;;;5.05;1.45;;;;;;;10.76;100.00;101515.02;1857442;76;21545;-74
2022/05/14 04:23:32;;;;;;;4.62;1.60;;;;;;;10.81;100.00;101517.23;1857594;76;21049;-74
2022/05/14 04:26:01;;;;;;;2.92;1.60;;;;;;;10.65;100.00;101517.02;1823907;77;21089;-74
2022/05/14 04:28:29;;;;;;;1.85;1.37;;;;;;;10.49;100.00;101517.17;1853322;77;21055;-74
2022/05/14 04:30:57;;;;;;;6.53;1.62;;;;;;;10.45;100.00;101517.95;1855517;77;21097;-74
2022/05/14 04:33:26;;;;;;;4.15;1.95;;;;;;;10.62;100.00;101519.94;1857624;75;21144;-74
2022/05/14 04:35:53;;;;;;;5.20;1.52;;;;;;;10.57;100.00;101514.30;1857570;76;21093;-74
2022/05/14 04:38:21;;;;;;;7.53;1.60;;;;;;;10.51;100.00;101515.47;1823321;76;21038;-74
2022/05/14 04:40:49;;;;;;;5.78;2.30;;;;;;;10.52;100.00;101518.92;1829859;77;21051;-74
2022/05/14 04:43:16;;;;;;;3.98;2.33;;;;;;;10.45;100.00;101508.97;1853343;76;21523;-74
2022/05/14 04:45:44;;;;;;;2.83;1.55;;;;;;;10.51;100.00;101515.91;1853737;77;21082;-74
2022/05/14 04:48:12;;;;;;;2.75;1.60;;;;;;;10.55;100.00;101518.57;1855104;77;21041;-74
2022/05/14 04:50:40;;;;;;;1.98;1.35;;;;;;;10.50;100.00;101520.17;1856573;77;21487;-74
2022/05/14 04:53:08;;;;;;;2.15;1.27;;;;;;;10.55;100.00;101523.70;1851785;76;21095;-74
2022/05/14 04:55:36;;;;;;;2.15;1.25;;;;;;;10.49;100.00;101515.88;1851503;76;21076;-74
2022/05/14 04:58:03;;;;;;;3.60;1.30;;;;;;;10.61;100.00;101518.22;1828244;77;21669;-74
2022/05/14 05:00:31;;;;;;;4.40;1.92;;;;;;;10.73;100.00;101518.41;1851611;77;21142;-74
2022/05/14 05:05:45;;;;;;;2.85;1.50;;;;;;;10.57;100.00;101518.56;1851171;76;21260;-74
2022/05/14 05:08:13;;;;;;;2.35;1.45;;;;;;;10.64;100.00;101517.83;1851299;77;21654;-74
2022/05/14 05:10:41;;;;;;;2.35;1.57;;;;;;;10.67;100.00;101515.73;1850740;76;21043;-74
2022/05/14 05:13:14;;;;;;;2.47;1.47;;;;;;;10.74;100.00;101511.13;1850296;77;21033;-74
2022/05/14 05:15:41;;;;;;;2.70;1.52;;;;;;;10.71;100.00;101513.64;1849894;76;21130;-74
2022/05/14 05:18:10;;;;;;;5.45;1.77;;;;;;;10.78;100.00;101514.19;1851028;76;21796;-74
2022/05/14 05:20:39;;;;;;;1.87;1.30;;;;;;;10.52;100.00;101513.38;1851539;76;21057;-74
2022/05/14 05:23:07;;;;;;;4.12;1.92;;;;;;;10.55;100.00;101506.12;1851305;76;21186;-74
2022/05/14 05:25:35;;;;;;;3.15;1.70;;;;;;;10.43;100.00;101510.19;1851537;76;21166;-73
2022/05/14 05:28:03;;;;;;;2.67;1.82;;;;;;;10.54;100.00;101507.83;1851442;76;21057;-74
2022/05/14 05:30:30;;;;;;;10.50;2.90;;;;;;;10.82;100.00;101509.98;1851716;77;21608;-74
2022/05/14 05:32:59;;;;;;;2.92;1.70;;;;;;;10.81;100.00;101506.53;1851693;77;21037;-76
2022/05/14 05:35:29;;;;;;;4.92;1.98;;;;;;;10.55;100.00;101510.86;1850939;76;21155;-75
2022/05/14 05:37:57;;;;;;;5.53;1.90;;;;;;;10.82;100.00;101509.98;1851575;76;21060;-75
2022/05/14 05:40:24;;;;;;;5.97;2.05;;;;;;;10.83;100.00;101507.44;1851027;77;21131;-75
2022/05/14 05:42:52;;;;;;;4.60;1.52;;;;;;;10.67;100.00;101499.90;1822559;77;21063;-75
2022/05/14 05:45:22;;;;;;;4.83;1.70;;;;;;;10.74;100.00;101504.70;1823398;78;21200;-76
2022/05/14 05:47:49;;;;;;;5.17;1.60;;;;;;;10.94;100.00;101502.86;1846972;76;21133;-75
2022/05/14 05:50:17;;;;;;;7.20;1.98;;;;;;;11.00;100.00;101508.10;1823277;76;21221;-76
2022/05/14 05:52:44;;;;;;;3.17;1.55;;;;;;;10.91;100.00;101505.38;1868699;76;21224;-75
2022/05/14 05:57:59;;;;;;;4.05;1.37;;;;;;;11.07;100.00;101506.06;1846425;77;21211;-75
2022/05/14 06:00:28;;;;;;;5.03;1.42;;;;;;;11.42;100.00;101507.78;1848478;77;21084;-75
2022/05/14 06:02:56;;;;;;;5.60;1.40;;;;;;;11.54;100.00;101507.09;1848013;78;21087;-75
2022/05/14 06:05:24;;;;;;;3.55;1.57;;;;;;;11.76;100.00;101511.19;1847945;77;21050;-76
2022/05/14 06:07:51;;;;;;;2.58;1.62;;;;;;;11.88;100.00;101502.30;1846587;78;21001;-75
2022/05/14 06:10:22;;;;;;;3.67;1.42;;;;;;;12.09;100.00;101506.84;1847553;77;21097;-75
2022/05/14 06:12:50;;;;;;;5.08;1.57;;;;;;;12.26;100.00;101507.43;1848035;77;21105;-75
2022/05/14 06:15:20;;;;;;;3.30;1.60;;;;;;;12.21;100.00;101506.09;1842128;77;21081;-75
2022/05/14 06:17:47;;;;;;;2.60;1.40;;;;;;;12.44;100.00;101508.02;1847943;76;21501;-75
2022/05/14 06:20:16;;;;;;;4.53;1.57;;;;;;;12.63;100.00;101506.44;1842834;77;21036;-75
2022/05/14 06:22:44;;;;;;;4.35;1.30;;;;;;;12.59;100.00;101508.55;1832441;78;21119;-75
2022/05/14 06:25:13;;;;;;;2.52;1.30;;;;;;;12.71;100.00;101512.08;1849379;76;21057;-75
2022/05/14 06:27:40;;;;;;;6.35;1.77;;;;;;;12.79;100.00;101507.84;1836875;76;21068;-76
2022/05/14 06:30:09;;;;;;;4.37;1.65;;;;;;;12.97;100.00;101510.96;1819049;77;21758;-76
2022/05/14 06:32:37;;;;;;;3.67;1.47;;;;;;;13.25;100.00;101514.14;1847444;77;21083;-76
2022/05/14 06:35:06;;;;;;;6.55;1.45;;;;;;;13.22;100.00;101504.67;1843736;78;21162;-76
2022/05/14 06:37:34;;;;;;;1.30;1.12;;;;;;;13.40;100.00;101514.22;1848162;78;21021;-76
2022/05/14 06:40:02;;;;;;;3.27;1.50;;;;;;;13.44;100.00;101507.75;1848378;78;21044;-76
2022/05/14 06:42:29;;;;;;;2.60;1.40;;;;;;;13.75;100.00;101502.32;1847839;78;21135;-76
2022/05/14 06:44:57;;;;;;;3.67;1.40;;;;;;;14.41;100.00;101513.61;1848156;78;21131;-76
2022/05/14 06:47:26;;;;;;;3.08;1.35;;;;;;;14.35;100.00;101508.42;1834876;76;21147;-76
2022/05/14 06:49:53;;;;;;;3.50;1.57;;;;;;;14.45;100.00;101503.70;1787987;78;21150;-76
2022/05/14 06:52:21;;;;;;;2.25;1.12;;;;;;;14.85;100.00;101499.80;1790870;78;21210;-76
2022/05/14 06:54:50;;;;;;;3.98;1.40;;;;;;;15.13;100.00;101504.91;1827988;78;21155;-76
2022/05/14 06:57:18;;;;;;;3.15;1.57;;;;;;;15.30;100.00;101509.62;1830250;76;21060;-76
2022/05/14 06:59:46;;;;;;;3.45;1.55;;;;;;;15.42;100.00;101517.76;1828912;78;21654;-76
2022/05/14 07:02:14;;;;;;;3.80;1.27;;;;;;;15.64;100.00;101502.56;1827522;78;21115;-76
2022/05/14 07:07:26;;;;;;;1.30;1.17;;;;;;;15.72;100.00;101509.85;1836511;78;22215;-76
2022/05/14 07:09:55;;;;;;;1.87;1.20;;;;;;;15.90;100.00;101503.70;1848381;78;21005;-77
2022/05/14 07:12:24;;;;;;;2.20;1.30;;;;;;;15.95;100.00;101498.53;1841450;76;21069;-76
2022/05/14 07:14:52;;;;;;;2.45;1.32;;;;;;;15.58;100.00;101504.32;1853601;76;21096;-76
2022/05/14 07:17:19;;;;;;;2.17;1.42;;;;;;;15.72;100.00;101492.59;1852506;76;21134;-77
2022/05/14 07:19:47;;;;;;;3.95;1.35;;;;;;;15.96;100.00;101490.75;1854113;76;21109;-77
2022/05/14 07:22:16;;;;;;;3.42;1.30;;;;;;;16.27;100.00;101490.08;1847271;78;21050;-77
2022/05/14 07:24:44;;;;;;;1.82;1.10;;;;;;;16.18;100.00;101485.39;1835111;76;21096;-77
2022/05/14 07:27:13;;;;;;;2.75;1.30;;;;;;;16.29;100.00;101488.34;1847152;77;21138;-77
2022/05/14 07:29:43;;;;;;;2.85;1.25;;;;;;;16.08;100.00;101485.89;1822029;77;21062;-74
2022/05/14 07:32:12;;;;;;;1.92;1.00;;;;;;;16.59;100.00;101488.51;1847477;78;21141;-74
2022/05/14 07:34:41;;;;;;;3.62;1.17;;;;;;;17.08;100.00;101485.43;1821649;78;21536;-74
2022/05/14 07:37:16;;;;;;;6.58;1.52;;;;;;;17.25;100.00;101482.63;1847700;76;21052;-74
2022/05/14 07:40:01;;;;;;;3.12;1.37;;;;;;;17.03;100.00;101476.38;1848507;76;21227;-74
2022/05/14 07:42:31;;;;;;;4.28;1.12;;;;;;;16.94;100.00;101481.66;1847685;78;21101;-74
2022/05/14 07:45:01;;;;;;;4.87;1.25;;;;;;;17.28;100.00;101467.02;1847453;77;21096;-74
2022/05/14 07:47:30;;;;;;;2.10;1.32;;;;;;;16.97;100.00;101464.33;1821916;76;21050;-74
2022/05/14 07:49:57;;;;;;;4.22;1.60;;;;;;;16.93;100.00;101461.35;1848282;78;22257;-74
2022/05/14 07:52:25;;;;;;;2.77;1.30;;;;;;;17.17;100.00;101451.58;1848864;76;21213;-74
2022/05/14 07:54:53;;;;;;;1.90;1.10;;;;;;;17.48;100.00;101455.08;1851175;77;21084;-74
2022/05/14 07:57:20;;;;;;;4.78;1.67;;;;;;;17.58;100.00;101462.73;1822564;78;21463;-74
2022/05/14 07:59:48;;;;;;;4.45;1.17;;;;;;;17.64;100.00;101449.64;1847203;78;21072;-74
2022/05/14 08:02:31;;;;;;;3.20;0.90;;;;;;;18.09;100.00;101453.35;1847098;77;21423;-75
2022/05/14 08:04:57;;;;;;;1.42;1.05;;;;;;;18.20;100.00;101452.70;1842025;76;21677;-74
2022/05/14 08:07:26;;;;;;;2.25;1.50;;;;;;;18.93;100.00;101438.36;1846376;76;21599;-75
2022/05/14 08:09:53;;;;;;;3.58;1.00;;;;;;;18.93;100.00;101438.36;1847571;77;21150;-74
2022/05/14 08:12:21;;;;;;;3.75;1.55;;;;;;;18.93;100.00;101450.55;1849413;77;21033;-74
2022/05/14 08:14:49;;;;;;;5.30;1.57;;;;;;;19.35;100.00;101447.10;1848677;76;21157;-74
2022/05/14 08:17:16;;;;;;;3.67;1.10;;;;;;;18.94;100.00;101440.09;1818708;77;21496;-74
2022/05/14 08:19:44;;;;;;;5.33;1.10;;;;;;;19.71;100.00;101434.13;1847218;77;21094;-75
2022/05/14 08:24:57;;;;;;;3.42;1.30;;;;;;;19.73;100.00;101427.57;1846287;76;21606;-75
2022/05/14 08:27:24;;;;;;;1.52;0.90;;;;;;;20.26;100.00;101417.59;1846629;76;21120;-75
2022/05/14 08:29:52;;;;;;;2.42;1.52;;;;;;;20.36;100.00;101415.16;1849548;77;21099;-75
2022/05/14 08:32:21;;;;;;;2.85;1.02;;;;;;;20.29;100.00;101407.95;1847878;77;21613;-75
2022/05/14 08:34:50;;;;;;;3.27;1.35;;;;;;;20.38;100.00;101417.27;1850090;76;21061;-75
2022/05/14 08:37:17;;;;;;;2.08;1.00;;;;;;;20.28;100.00;101407.52;1849347;76;21160;-75
2022/05/14 08:39:45;;;;;;;4.95;1.12;;;;;;;20.48;100.00;101409.61;1847602;77;21132;-73
2022/05/14 08:42:13;;;;;;;5.75;1.20;;;;;;;20.97;100.00;101402.61;1824684;77;21454;-73
2022/05/14 08:44:42;;;;;;;3.02;1.17;;;;;;;20.37;100.00;101399.91;1849095;77;21084;-73
2022/05/14 08:47:13;;;;;;;2.60;1.15;;;;;;;20.90;100.00;101395.84;1845080;77;21122;-73
2022/05/14 08:49:44;;;;;;;6.17;1.20;;;;;;;20.97;100.00;101395.24;1843578;76;21207;-74
2022/05/14 08:52:14;;;;;;;2.87;1.10;;;;;;;21.06;100.00;101396.27;1853259;76;21911;-74
2022/05/14 08:54:42;;;;;;;1.00;0.90;;;;;;;21.66;100.00;101396.59;1849117;76;21088;-74
2022/05/14 08:57:17;;;;;;;3.42;1.00;;;;;;;21.31;100.00;101382.91;1848274;78;21615;-74
2022/05/14 08:59:59;;;;;;;4.87;1.17;;;;;;;21.98;100.00;101382.08;1825249;78;21085;-75
2022/05/14 09:02:35;;;;;;;3.05;1.07;;;;;;;22.62;100.00;101382.03;1848184;78;21044;-75
2022/05/14 09:05:15;;;;;;;3.05;1.10;;;;;;;23.04;100.00;101372.59;1848354;78;21088;-75
2022/05/14 09:07:43;;;;;;;4.55;1.20;;;;;;;23.14;100.00;101372.23;1847813;76;21056;-75
2022/05/14 09:10:30;;;;;;;2.20;0.90;;;;;;;22.59;100.00;101369.48;1847999;78;21084;-75
2022/05/14 09:13:13;;;;;;;4.08;1.22;;;;;;;22.73;100.00;101360.67;1845910;78;21127;-77
2022/05/14 09:15:55;;;;;;;2.45;1.37;;;;;;;23.43;100.00;101356.67;1843698;78;21055;-77
2022/05/14 09:18:25;;;;;;;3.65;1.02;;;;;;;24.03;100.00;101352.91;1846521;76;21124;-77
2022/05/14 09:20:58;;;;;;;3.70;1.27;;;;;;;23.56;100.00;101351.78;1844608;77;21045;-77
2022/05/14 09:23:31;;;;;;;2.58;1.27;;;;;;;23.90;100.00;101353.89;1845139;76;21441;-77
2022/05/14 09:26:03;;;;;;;4.97;1.37;;;;;;;24.25;100.00;101344.97;1844938;78;21142;-77
2022/05/14 09:28:46;;;;;;;1.90;1.07;;;;;;;24.24;100.00;101348.52;1851811;76;21084;-77
2022/05/14 09:31:25;;;;;;;3.50;1.10;;;;;;;23.93;100.00;101348.06;1905173;75;21443;-77
2022/05/14 09:34:07;;;;;;;2.60;1.20;;;;;;;24.01;100.00;101345.09;1874071;75;21076;-77
2022/05/14 09:36:36;;;;;;;4.53;1.00;;;;;;;24.44;100.00;101339.73;1882063;75;21015;-77
2022/05/14 09:39:10;;;;;;;2.83;1.20;;;;;;;24.28;100.00;101333.02;1847566;76;21040;-77
2022/05/14 09:41:40;;;;;;;2.25;1.15;;;;;;;24.21;100.00;101331.14;1868445;76;21112;-78
2022/05/14 09:44:10;;;;;;;1.72;1.25;;;;;;;24.17;100.00;101332.20;1845424;77;21605;-79
2022/05/14 09:46:37;;;;;;;2.60;1.10;;;;;;;24.26;100.00;101330.08;1903453;75;21130;-81
2022/05/14 09:49:08;;;;;;;2.47;1.10;;;;;;;24.82;100.00;101334.93;1906726;74;21576;-79
2022/05/14 09:51:50;;;;;;;2.22;0.80;;;;;;;24.74;100.00;101327.88;1860591;76;21053;-79
2022/05/14 09:54:47;;;;;;;3.05;1.10;;;;;;;24.74;100.00;101320.86;1876557;76;21202;-79
2022/05/14 09:57:23;;;;;;;4.97;1.00;;;;;;;25.04;100.00;101323.89;1871427;75;21566;-78
2022/05/14 09:59:59;;;;;;;7.22;1.60;;;;;;;24.92;100.00;101318.30;1870118;75;21141;-77
2022/05/14 10:02:48;;;;;;;3.37;0.90;;;;;;;24.48;100.00;101311.09;1877560;75;21115;-77
2022/05/14 10:05:21;;;;;;;5.20;1.32;;;;;;;25.02;100.00;101309.98;1871274;76;21090;-77
2022/05/14 10:07:54;;;;;;;6.20;1.52;;;;;;;25.48;100.00;101304.22;1833791;76;21107;-77
2022/05/14 10:10:52;;;;;;;1.70;0.90;;;;;;;25.57;100.00;101294.98;1876986;76;21203;-77
2022/05/14 10:13:47;;;;;;;2.20;1.10;;;;;;;25.50;100.00;101300.58;1907449;74;21174;-77
2022/05/14 10:16:39;;;;;;;2.25;0.80;;;;;;;25.49;100.00;101296.71;1907070;74;21485;-78
2022/05/14 10:19:27;;;;;;;1.47;1.00;;;;;;;25.42;100.00;101304.06;1841845;77;21181;-78
2022/05/14 10:22:12;;;;;;;3.40;1.35;;;;;;;25.61;100.00;101296.11;1897024;74;21473;-78
2022/05/14 10:28:07;;;;;;;5.08;1.32;;;;;;;25.32;100.00;101306.30;1846014;74;21144;-78
2022/05/14 10:30:54;;;;;;;4.12;1.67;;;;;;;24.89;100.00;101291.33;1904842;74;21097;-77
2022/05/14 10:33:27;;;;;;;5.50;1.60;;;;;;;25.36;100.00;101296.47;1890245;74;21017;-78
2022/05/14 10:36:22;;;;;;;2.37;1.02;;;;;;;25.65;100.00;101295.96;1906820;74;21568;-77
2022/05/14 10:38:53;;;;;;;2.70;1.00;;;;;;;26.13;100.00;101296.08;1908477;74;21132;-78
2022/05/14 10:41:40;;;;;;;4.17;1.10;;;;;;;26.00;100.00;101298.05;1905992;74;21081;-78
2022/05/14 10:44:13;;;;;;;2.85;1.30;;;;;;;25.76;100.00;101298.41;1911314;74;21652;-77
2022/05/14 10:46:42;;;;;;;3.33;1.00;;;;;;;25.45;100.00;101289.91;1902052;74;21161;-77
2022/05/14 10:49:27;;;;;;;4.58;1.40;;;;;;;25.37;100.00;101288.96;1894119;74;22124;-77
2022/05/14 10:51:56;;;;;;;7.03;1.40;;;;;;;25.82;100.00;101285.88;1880852;74;21470;-77
2022/05/14 10:54:25;;;;;;;3.00;1.10;;;;;;;25.19;100.00;101281.53;1883880;74;21163;-77
2022/05/14 10:56:59;;;;;;;2.75;1.27;;;;;;;25.53;100.00;101282.47;1893739;76;21056;-77
2022/05/14 10:59:34;;;;;;;6.47;1.30;;;;;;;25.60;100.00;101284.34;1848999;76;21076;-77
2022/05/14 11:02:04;;;;;;;3.10;1.10;;;;;;;26.03;100.00;101278.61;1893374;74;21127;-77
2022/05/14 11:04:43;;;;;;;4.65;1.00;;;;;;;25.99;100.00;101279.25;1893499;76;21081;-77
2022/05/14 11:07:28;;;;;;;4.45;1.17;;;;;;;25.49;100.00;101276.98;1848761;76;21044;-77
2022/05/14 11:09:57;;;;;;;5.92;1.50;;;;;;;25.81;100.00;101274.95;1839052;76;21027;-77
2022/05/14 11:12:28;;;;;;;2.20;1.20;;;;;;;25.51;100.00;101274.66;1829260;77;21570;-77
2022/05/14 11:14:58;;;;;;;3.15;1.40;;;;;;;24.97;100.00;101265.06;1849377;76;21072;-76
2022/05/14 11:17:38;;;;;;;4.25;1.35;;;;;;;24.94;100.00;101261.72;1893135;74;21085;-77
2022/05/14 11:20:09;;;;;;;2.15;1.10;;;;;;;25.05;100.00;101262.05;1823378;77;21043;-77
2022/05/14 11:22:42;;;;;;;3.10;1.37;;;;;;;25.35;100.00;101262.77;1892971;74;21017;-77
2022/05/14 11:25:12;;;;;;;3.35;1.30;;;;;;;25.05;100.00;101255.92;1889370;74;21120;-77
2022/05/14 11:27:41;;;;;;;3.98;1.95;;;;;;;25.07;100.00;101260.20;1849037;77;21016;-76
2022/05/14 11:30:13;;;;;;;7.25;2.33;;;;;;;25.01;100.00;101251.75;1818549;79;21124;-77
2022/05/14 11:32:52;;;;;;;3.52;1.30;;;;;;;24.81;100.00;101249.60;1848750;76;21052;-77
2022/05/14 11:35:20;;;;;;;1.57;1.02;;;;;;;24.94;100.00;101256.02;1847329;77;21505;-77
2022/05/14 11:37:51;;;;;;;5.00;1.70;;;;;;;24.67;100.00;101256.39;1893663;74;21175;-79
2022/05/14 11:40:25;;;;;;;6.50;1.55;;;;;;;24.63;100.00;101253.52;1892828;74;21053;-76
2022/05/14 11:43:11;;;;;;;6.58;1.75;;;;;;;24.45;100.00;101255.24;1893933;74;21117;-76
2022/05/14 11:45:41;;;;;;;2.58;0.98;;;;;;;24.52;100.00;101250.55;1893335;76;21085;-76
2022/05/14 11:48:20;;;;;;;4.55;1.65;;;;;;;24.36;100.00;101244.70;1849038;76;21473;-76